sensor_id;sensor_type;location;lat;lon;timestamp;P1;durP1;ratioP1;P2;durP2;ratioP2
38425;SDS011;24210;51.460;6.148;2023-03-14T00:01:21;7.70;;;1.80;;
38425;SDS011;24210;51.460;6.148;2023-03-14T00:03:47;9.50;;;1.40;;
38425;SDS011;24210;51.460;6.148;2023-03-14T00:06:13;8.77;;;1.20;;
38425;SDS011;24210;51.460;6.148;2023-03-14T00:08:38;4.37;;;1.00;;
38425;SDS011;24210;51.460;6.148;2023-03-14T00:11:07;3.60;;;1.57;;
38425;SDS011;24210;51.460;6.148;2023-03-14T00:13:33;6.32;;;1.27;;
38425;SDS011;24210;51.460;6.148;2023-03-14T00:16:02;7.97;;;1.33;;
38425;SDS011;24210;51.460;6.148;2023-03-14T00:18:27;4.38;;;1.10;;
38425;SDS011;24210;51.460;6.148;2023-03-14T00:20:52;4.90;;;1.30;;
38425;SDS011;24210;51.460;6.148;2023-03-14T00:23:18;5.93;;;1.50;;
38425;SDS011;24210;51.460;6.148;2023-03-14T00:25:43;4.53;;;1.10;;
38425;SDS011;24210;51.460;6.148;2023-03-14T00:28:08;7.10;;;1.33;;
38425;SDS011;24210;51.460;6.148;2023-03-14T00:30:33;5.60;;;1.33;;
38425;SDS011;24210;51.460;6.148;2023-03-14T00:32:58;2.20;;;0.60;;
38425;SDS011;24210;51.460;6.148;2023-03-14T00:35:24;6.57;;;1.77;;
38425;SDS011;24210;51.460;6.148;2023-03-14T00:37:49;4.23;;;1.57;;
38425;SDS011;24210;51.460;6.148;2023-03-14T00:40:14;4.83;;;1.27;;
38425;SDS011;24210;51.460;6.148;2023-03-14T00:42:39;4.23;;;1.53;;
38425;SDS011;24210;51.460;6.148;2023-03-14T00:45:05;4.57;;;1.10;;
38425;SDS011;24210;51.460;6.148;2023-03-14T00:47:30;4.90;;;1.23;;
38425;SDS011;24210;51.460;6.148;2023-03-14T00:49:56;4.43;;;1.57;;
38425;SDS011;24210;51.460;6.148;2023-03-14T00:52:22;5.07;;;1.90;;
38425;SDS011;24210;51.460;6.148;2023-03-14T00:54:47;6.17;;;1.17;;
38425;SDS011;24210;51.460;6.148;2023-03-14T00:57:12;6.13;;;3.77;;
38425;SDS011;24210;51.460;6.148;2023-03-14T00:59:37;3.57;;;0.83;;
38425;SDS011;24210;51.460;6.148;2023-03-14T01:02:03;7.30;;;0.93;;
38425;SDS011;24210;51.460;6.148;2023-03-14T01:04:28;5.77;;;1.27;;
38425;SDS011;24210;51.460;6.148;2023-03-14T01:06:55;10.18;;;1.40;;
38425;SDS011;24210;51.460;6.148;2023-03-14T01:09:20;5.83;;;0.80;;
38425;SDS011;24210;51.460;6.148;2023-03-14T01:11:45;6.93;;;1.10;;
38425;SDS011;24210;51.460;6.148;2023-03-14T01:14:11;2.17;;;0.90;;
38425;SDS011;24210;51.460;6.148;2023-03-14T01:16:36;3.93;;;1.50;;
38425;SDS011;24210;51.460;6.148;2023-03-14T01:19:02;4.07;;;0.80;;
38425;SDS011;24210;51.460;6.148;2023-03-14T01:21:28;9.37;;;1.37;;
38425;SDS011;24210;51.460;6.148;2023-03-14T01:23:54;2.85;;;1.02;;
38425;SDS011;24210;51.460;6.148;2023-03-14T01:26:20;4.05;;;0.80;;
38425;SDS011;24210;51.460;6.148;2023-03-14T01:28:47;3.78;;;0.50;;
38425;SDS011;24210;51.460;6.148;2023-03-14T01:31:12;2.65;;;0.60;;
38425;SDS011;24210;51.460;6.148;2023-03-14T01:33:38;5.00;;;1.13;;
38425;SDS011;24210;51.460;6.148;2023-03-14T01:36:03;7.47;;;1.17;;
38425;SDS011;24210;51.460;6.148;2023-03-14T01:38:29;4.43;;;0.47;;
38425;SDS011;24210;51.460;6.148;2023-03-14T01:40:55;2.90;;;0.95;;
38425;SDS011;24210;51.460;6.148;2023-03-14T01:43:20;4.03;;;0.67;;
38425;SDS011;24210;51.460;6.148;2023-03-14T01:48:24;6.88;;;0.77;;
38425;SDS011;24210;51.460;6.148;2023-03-14T01:50:50;4.43;;;0.73;;
38425;SDS011;24210;51.460;6.148;2023-03-14T01:53:15;4.33;;;1.10;;
38425;SDS011;24210;51.460;6.148;2023-03-14T01:55:40;2.23;;;0.57;;
38425;SDS011;24210;51.460;6.148;2023-03-14T01:58:05;3.20;;;1.13;;
38425;SDS011;24210;51.460;6.148;2023-03-14T02:00:31;3.57;;;0.63;;
38425;SDS011;24210;51.460;6.148;2023-03-14T02:02:58;5.23;;;2.20;;
38425;SDS011;24210;51.460;6.148;2023-03-14T02:05:27;3.05;;;0.57;;
38425;SDS011;24210;51.460;6.148;2023-03-14T02:07:54;4.28;;;0.70;;
38425;SDS011;24210;51.460;6.148;2023-03-14T02:10:21;5.35;;;1.10;;
38425;SDS011;24210;51.460;6.148;2023-03-14T02:12:48;6.57;;;1.35;;
38425;SDS011;24210;51.460;6.148;2023-03-14T02:15:13;1.40;;;0.60;;
38425;SDS011;24210;51.460;6.148;2023-03-14T02:17:40;2.93;;;0.40;;
38425;SDS011;24210;51.460;6.148;2023-03-14T02:22:32;8.98;;;0.75;;
38425;SDS011;24210;51.460;6.148;2023-03-14T02:25:20;3.63;;;0.93;;
38425;SDS011;24210;51.460;6.148;2023-03-14T02:27:48;7.03;;;1.25;;
38425;SDS011;24210;51.460;6.148;2023-03-14T02:30:20;4.43;;;1.23;;
38425;SDS011;24210;51.460;6.148;2023-03-14T02:32:46;5.72;;;0.85;;
38425;SDS011;24210;51.460;6.148;2023-03-14T02:35:14;3.67;;;0.55;;
38425;SDS011;24210;51.460;6.148;2023-03-14T02:37:45;5.20;;;0.90;;
38425;SDS011;24210;51.460;6.148;2023-03-14T02:40:11;7.47;;;0.82;;
38425;SDS011;24210;51.460;6.148;2023-03-14T02:42:36;6.30;;;1.23;;
38425;SDS011;24210;51.460;6.148;2023-03-14T02:47:33;6.57;;;1.17;;
38425;SDS011;24210;51.460;6.148;2023-03-14T02:50:02;4.03;;;1.20;;
38425;SDS011;24210;51.460;6.148;2023-03-14T02:52:28;4.38;;;0.73;;
38425;SDS011;24210;51.460;6.148;2023-03-14T02:54:54;6.83;;;0.90;;
38425;SDS011;24210;51.460;6.148;2023-03-14T02:57:19;7.47;;;1.70;;
38425;SDS011;24210;51.460;6.148;2023-03-14T02:59:44;5.63;;;1.03;;
38425;SDS011;24210;51.460;6.148;2023-03-14T03:02:10;7.07;;;1.73;;
38425;SDS011;24210;51.460;6.148;2023-03-14T03:04:35;5.07;;;2.43;;
38425;SDS011;24210;51.460;6.148;2023-03-14T03:07:00;7.10;;;1.17;;
38425;SDS011;24210;51.460;6.148;2023-03-14T03:09:25;10.07;;;4.40;;
38425;SDS011;24210;51.460;6.148;2023-03-14T03:11:50;5.93;;;1.10;;
38425;SDS011;24210;51.460;6.148;2023-03-14T03:14:16;8.87;;;0.80;;
38425;SDS011;24210;51.460;6.148;2023-03-14T03:16:41;5.47;;;1.40;;
38425;SDS011;24210;51.460;6.148;2023-03-14T03:19:06;6.30;;;1.20;;
38425;SDS011;24210;51.460;6.148;2023-03-14T03:21:31;7.77;;;1.13;;
38425;SDS011;24210;51.460;6.148;2023-03-14T03:23:57;3.03;;;0.87;;
38425;SDS011;24210;51.460;6.148;2023-03-14T03:26:22;6.07;;;1.53;;
38425;SDS011;24210;51.460;6.148;2023-03-14T03:28:49;8.33;;;1.47;;
38425;SDS011;24210;51.460;6.148;2023-03-14T03:31:15;4.70;;;0.90;;
38425;SDS011;24210;51.460;6.148;2023-03-14T03:33:40;5.43;;;1.37;;
38425;SDS011;24210;51.460;6.148;2023-03-14T03:36:05;7.93;;;1.00;;
38425;SDS011;24210;51.460;6.148;2023-03-14T03:38:31;9.83;;;1.20;;
38425;SDS011;24210;51.460;6.148;2023-03-14T03:40:56;5.47;;;1.33;;
38425;SDS011;24210;51.460;6.148;2023-03-14T03:43:21;7.87;;;1.13;;
38425;SDS011;24210;51.460;6.148;2023-03-14T03:45:46;6.17;;;0.80;;
38425;SDS011;24210;51.460;6.148;2023-03-14T03:48:12;4.87;;;1.50;;
38425;SDS011;24210;51.460;6.148;2023-03-14T03:50:37;3.43;;;0.80;;
38425;SDS011;24210;51.460;6.148;2023-03-14T03:53:08;8.23;;;2.15;;
38425;SDS011;24210;51.460;6.148;2023-03-14T03:55:33;3.60;;;0.77;;
38425;SDS011;24210;51.460;6.148;2023-03-14T03:57:58;7.17;;;1.33;;
38425;SDS011;24210;51.460;6.148;2023-03-14T04:00:23;9.43;;;0.97;;
38425;SDS011;24210;51.460;6.148;2023-03-14T04:02:49;6.97;;;1.73;;
38425;SDS011;24210;51.460;6.148;2023-03-14T04:05:14;5.47;;;2.27;;
38425;SDS011;24210;51.460;6.148;2023-03-14T04:07:39;2.97;;;0.70;;
38425;SDS011;24210;51.460;6.148;2023-03-14T04:10:05;4.93;;;1.20;;
38425;SDS011;24210;51.460;6.148;2023-03-14T04:12:30;3.47;;;0.43;;
38425;SDS011;24210;51.460;6.148;2023-03-14T04:14:55;4.47;;;1.17;;
38425;SDS011;24210;51.460;6.148;2023-03-14T04:17:20;1.30;;;0.47;;
38425;SDS011;24210;51.460;6.148;2023-03-14T04:19:45;5.10;;;0.47;;
38425;SDS011;24210;51.460;6.148;2023-03-14T04:22:11;7.53;;;0.87;;
38425;SDS011;24210;51.460;6.148;2023-03-14T04:24:36;6.63;;;0.93;;
38425;SDS011;24210;51.460;6.148;2023-03-14T04:27:01;6.27;;;1.70;;
38425;SDS011;24210;51.460;6.148;2023-03-14T04:29:27;4.27;;;0.90;;
38425;SDS011;24210;51.460;6.148;2023-03-14T04:31:52;2.40;;;0.70;;
38425;SDS011;24210;51.460;6.148;2023-03-14T04:34:17;2.10;;;0.10;;
38425;SDS011;24210;51.460;6.148;2023-03-14T04:36:42;4.70;;;0.40;;
38425;SDS011;24210;51.460;6.148;2023-03-14T04:39:08;2.67;;;0.47;;
38425;SDS011;24210;51.460;6.148;2023-03-14T04:41:33;3.57;;;0.17;;
38425;SDS011;24210;51.460;6.148;2023-03-14T04:43:58;3.80;;;0.30;;
38425;SDS011;24210;51.460;6.148;2023-03-14T04:46:23;2.53;;;0.83;;
38425;SDS011;24210;51.460;6.148;2023-03-14T04:48:48;1.97;;;0.20;;
38425;SDS011;24210;51.460;6.148;2023-03-14T04:51:14;1.83;;;0.13;;
38425;SDS011;24210;51.460;6.148;2023-03-14T04:53:39;1.50;;;0.10;;
38425;SDS011;24210;51.460;6.148;2023-03-14T04:56:05;2.17;;;0.40;;
38425;SDS011;24210;51.460;6.148;2023-03-14T04:58:30;2.43;;;0.10;;
38425;SDS011;24210;51.460;6.148;2023-03-14T05:00:55;0.63;;;0.10;;
38425;SDS011;24210;51.460;6.148;2023-03-14T05:03:21;2.33;;;0.10;;
38425;SDS011;24210;51.460;6.148;2023-03-14T05:05:46;1.93;;;0.33;;
38425;SDS011;24210;51.460;6.148;2023-03-14T05:08:12;1.07;;;0.40;;
38425;SDS011;24210;51.460;6.148;2023-03-14T05:10:37;1.97;;;0.20;;
38425;SDS011;24210;51.460;6.148;2023-03-14T05:13:03;1.43;;;0.20;;
38425;SDS011;24210;51.460;6.148;2023-03-14T05:15:28;1.17;;;0.40;;
38425;SDS011;24210;51.460;6.148;2023-03-14T05:17:53;2.20;;;0.10;;
38425;SDS011;24210;51.460;6.148;2023-03-14T05:20:19;1.93;;;0.20;;
38425;SDS011;24210;51.460;6.148;2023-03-14T05:22:44;1.63;;;0.20;;
38425;SDS011;24210;51.460;6.148;2023-03-14T05:25:10;3.20;;;0.40;;
38425;SDS011;24210;51.460;6.148;2023-03-14T05:27:35;0.90;;;0.67;;
38425;SDS011;24210;51.460;6.148;2023-03-14T05:30:01;1.87;;;0.33;;
38425;SDS011;24210;51.460;6.148;2023-03-14T05:32:26;5.43;;;0.50;;
38425;SDS011;24210;51.460;6.148;2023-03-14T05:34:51;1.87;;;0.40;;
38425;SDS011;24210;51.460;6.148;2023-03-14T05:37:16;4.70;;;2.53;;
38425;SDS011;24210;51.460;6.148;2023-03-14T05:39:42;2.83;;;0.77;;
38425;SDS011;24210;51.460;6.148;2023-03-14T05:42:07;2.30;;;0.70;;
38425;SDS011;24210;51.460;6.148;2023-03-14T05:44:32;1.97;;;0.60;;
38425;SDS011;24210;51.460;6.148;2023-03-14T05:46:57;2.37;;;0.90;;
38425;SDS011;24210;51.460;6.148;2023-03-14T05:49:22;1.57;;;0.60;;
38425;SDS011;24210;51.460;6.148;2023-03-14T05:51:48;2.77;;;0.87;;
38425;SDS011;24210;51.460;6.148;2023-03-14T05:54:13;1.30;;;1.10;;
38425;SDS011;24210;51.460;6.148;2023-03-14T05:56:38;1.43;;;0.70;;
38425;SDS011;24210;51.460;6.148;2023-03-14T05:59:03;3.23;;;0.57;;
38425;SDS011;24210;51.460;6.148;2023-03-14T06:01:29;3.50;;;0.77;;
38425;SDS011;24210;51.460;6.148;2023-03-14T06:03:55;3.25;;;0.82;;
38425;SDS011;24210;51.460;6.148;2023-03-14T06:06:20;3.00;;;0.60;;
38425;SDS011;24210;51.460;6.148;2023-03-14T06:08:45;2.40;;;0.53;;
38425;SDS011;24210;51.460;6.148;2023-03-14T06:11:11;1.27;;;0.47;;
38425;SDS011;24210;51.460;6.148;2023-03-14T06:13:36;2.47;;;0.80;;
38425;SDS011;24210;51.460;6.148;2023-03-14T06:16:01;1.97;;;0.73;;
38425;SDS011;24210;51.460;6.148;2023-03-14T06:18:26;4.97;;;1.40;;
38425;SDS011;24210;51.460;6.148;2023-03-14T06:20:55;2.97;;;0.70;;
38425;SDS011;24210;51.460;6.148;2023-03-14T06:23:20;3.65;;;1.35;;
38425;SDS011;24210;51.460;6.148;2023-03-14T06:25:46;0.77;;;0.53;;
38425;SDS011;24210;51.460;6.148;2023-03-14T06:28:11;2.50;;;0.67;;
38425;SDS011;24210;51.460;6.148;2023-03-14T06:30:37;2.80;;;0.50;;
38425;SDS011;24210;51.460;6.148;2023-03-14T06:33:02;4.83;;;0.53;;
38425;SDS011;24210;51.460;6.148;2023-03-14T06:35:27;2.37;;;0.70;;
38425;SDS011;24210;51.460;6.148;2023-03-14T06:37:52;3.40;;;0.70;;
38425;SDS011;24210;51.460;6.148;2023-03-14T06:40:17;3.17;;;0.70;;
38425;SDS011;24210;51.460;6.148;2023-03-14T06:42:43;7.20;;;0.60;;
38425;SDS011;24210;51.460;6.148;2023-03-14T06:45:09;2.07;;;0.40;;
38425;SDS011;24210;51.460;6.148;2023-03-14T06:47:34;3.20;;;1.10;;
38425;SDS011;24210;51.460;6.148;2023-03-14T06:49:59;1.90;;;0.60;;
38425;SDS011;24210;51.460;6.148;2023-03-14T06:52:25;1.00;;;0.50;;
38425;SDS011;24210;51.460;6.148;2023-03-14T06:54:50;1.57;;;0.67;;
38425;SDS011;24210;51.460;6.148;2023-03-14T06:57:15;1.37;;;0.27;;
38425;SDS011;24210;51.460;6.148;2023-03-14T06:59:40;1.30;;;0.60;;
38425;SDS011;24210;51.460;6.148;2023-03-14T07:02:07;0.67;;;0.20;;
38425;SDS011;24210;51.460;6.148;2023-03-14T07:04:35;0.45;;;0.08;;
38425;SDS011;24210;51.460;6.148;2023-03-14T07:07:00;1.17;;;0.57;;
38425;SDS011;24210;51.460;6.148;2023-03-14T07:09:25;6.27;;;0.50;;
38425;SDS011;24210;51.460;6.148;2023-03-14T07:11:50;0.47;;;0.30;;
38425;SDS011;24210;51.460;6.148;2023-03-14T07:14:16;5.80;;;0.30;;
38425;SDS011;24210;51.460;6.148;2023-03-14T07:16:41;0.40;;;0.20;;
38425;SDS011;24210;51.460;6.148;2023-03-14T07:19:06;0.00;;;0.00;;
38425;SDS011;24210;51.460;6.148;2023-03-14T07:21:31;1.20;;;0.97;;
38425;SDS011;24210;51.460;6.148;2023-03-14T07:23:57;0.40;;;0.23;;
38425;SDS011;24210;51.460;6.148;2023-03-14T07:26:22;0.30;;;0.10;;
38425;SDS011;24210;51.460;6.148;2023-03-14T07:28:48;0.40;;;0.17;;
38425;SDS011;24210;51.460;6.148;2023-03-14T07:31:13;0.33;;;0.33;;
38425;SDS011;24210;51.460;6.148;2023-03-14T07:33:38;0.63;;;0.40;;
38425;SDS011;24210;51.460;6.148;2023-03-14T07:36:04;0.93;;;0.50;;
38425;SDS011;24210;51.460;6.148;2023-03-14T07:38:29;1.40;;;0.50;;
38425;SDS011;24210;51.460;6.148;2023-03-14T07:41:12;1.37;;;0.07;;
38425;SDS011;24210;51.460;6.148;2023-03-14T07:43:38;0.30;;;0.00;;
38425;SDS011;24210;51.460;6.148;2023-03-14T07:46:03;0.83;;;0.60;;
38425;SDS011;24210;51.460;6.148;2023-03-14T07:48:28;0.70;;;0.63;;
38425;SDS011;24210;51.460;6.148;2023-03-14T07:50:54;0.77;;;0.50;;
38425;SDS011;24210;51.460;6.148;2023-03-14T07:53:20;0.73;;;0.20;;
38425;SDS011;24210;51.460;6.148;2023-03-14T07:55:45;0.22;;;0.10;;
38425;SDS011;24210;51.460;6.148;2023-03-14T07:58:11;0.93;;;0.53;;
38425;SDS011;24210;51.460;6.148;2023-03-14T08:00:36;0.30;;;0.20;;
38425;SDS011;24210;51.460;6.148;2023-03-14T08:03:02;1.23;;;0.53;;
38425;SDS011;24210;51.460;6.148;2023-03-14T08:05:27;0.70;;;0.53;;
38425;SDS011;24210;51.460;6.148;2023-03-14T08:07:52;0.70;;;0.40;;
38425;SDS011;24210;51.460;6.148;2023-03-14T08:10:17;0.40;;;0.30;;
38425;SDS011;24210;51.460;6.148;2023-03-14T08:12:46;0.50;;;0.50;;
38425;SDS011;24210;51.460;6.148;2023-03-14T08:15:11;0.83;;;0.83;;
38425;SDS011;24210;51.460;6.148;2023-03-14T08:17:36;0.40;;;0.10;;
38425;SDS011;24210;51.460;6.148;2023-03-14T08:20:02;1.33;;;0.50;;
38425;SDS011;24210;51.460;6.148;2023-03-14T08:22:31;0.63;;;0.40;;
38425;SDS011;24210;51.460;6.148;2023-03-14T08:24:56;0.40;;;0.40;;
38425;SDS011;24210;51.460;6.148;2023-03-14T08:27:22;1.47;;;0.30;;
38425;SDS011;24210;51.460;6.148;2023-03-14T08:29:47;0.67;;;0.10;;
38425;SDS011;24210;51.460;6.148;2023-03-14T08:32:12;0.33;;;0.00;;
38425;SDS011;24210;51.460;6.148;2023-03-14T08:34:37;0.73;;;0.03;;
38425;SDS011;24210;51.460;6.148;2023-03-14T08:37:03;1.15;;;0.40;;
38425;SDS011;24210;51.460;6.148;2023-03-14T08:39:28;0.77;;;0.10;;
38425;SDS011;24210;51.460;6.148;2023-03-14T08:41:54;0.37;;;0.20;;
38425;SDS011;24210;51.460;6.148;2023-03-14T08:44:19;0.10;;;0.10;;
38425;SDS011;24210;51.460;6.148;2023-03-14T08:46:44;2.40;;;0.30;;
38425;SDS011;24210;51.460;6.148;2023-03-14T08:49:09;2.63;;;0.23;;
38425;SDS011;24210;51.460;6.148;2023-03-14T08:51:35;0.30;;;0.10;;
38425;SDS011;24210;51.460;6.148;2023-03-14T08:54:00;2.17;;;0.10;;
38425;SDS011;24210;51.460;6.148;2023-03-14T08:56:25;1.20;;;0.10;;
38425;SDS011;24210;51.460;6.148;2023-03-14T08:58:50;1.40;;;0.13;;
38425;SDS011;24210;51.460;6.148;2023-03-14T09:01:15;0.37;;;0.30;;
38425;SDS011;24210;51.460;6.148;2023-03-14T09:03:41;0.77;;;0.20;;
38425;SDS011;24210;51.460;6.148;2023-03-14T09:06:07;1.03;;;0.30;;
38425;SDS011;24210;51.460;6.148;2023-03-14T09:08:32;1.88;;;0.55;;
38425;SDS011;24210;51.460;6.148;2023-03-14T09:10:58;0.47;;;0.20;;
38425;SDS011;24210;51.460;6.148;2023-03-14T09:13:23;0.67;;;0.40;;
38425;SDS011;24210;51.460;6.148;2023-03-14T09:15:52;1.47;;;0.43;;
38425;SDS011;24210;51.460;6.148;2023-03-14T09:18:17;1.23;;;1.10;;
38425;SDS011;24210;51.460;6.148;2023-03-14T09:20:42;0.73;;;0.40;;
38425;SDS011;24210;51.460;6.148;2023-03-14T09:23:08;0.70;;;0.60;;
38425;SDS011;24210;51.460;6.148;2023-03-14T09:25:33;0.40;;;0.30;;
38425;SDS011;24210;51.460;6.148;2023-03-14T09:27:58;2.73;;;0.50;;
38425;SDS011;24210;51.460;6.148;2023-03-14T09:30:23;0.43;;;0.40;;
38425;SDS011;24210;51.460;6.148;2023-03-14T09:32:49;0.87;;;0.23;;
38425;SDS011;24210;51.460;6.148;2023-03-14T09:35:14;0.60;;;0.30;;
38425;SDS011;24210;51.460;6.148;2023-03-14T09:37:39;0.73;;;0.40;;
38425;SDS011;24210;51.460;6.148;2023-03-14T09:40:04;2.00;;;0.40;;
38425;SDS011;24210;51.460;6.148;2023-03-14T09:42:35;0.40;;;0.28;;
38425;SDS011;24210;51.460;6.148;2023-03-14T09:45:03;1.00;;;0.50;;
38425;SDS011;24210;51.460;6.148;2023-03-14T09:47:30;2.42;;;0.50;;
38425;SDS011;24210;51.460;6.148;2023-03-14T09:49:56;3.73;;;0.50;;
38425;SDS011;24210;51.460;6.148;2023-03-14T09:52:31;4.13;;;0.60;;
38425;SDS011;24210;51.460;6.148;2023-03-14T09:55:01;1.67;;;0.20;;
38425;SDS011;24210;51.460;6.148;2023-03-14T09:57:27;0.77;;;0.30;;
38425;SDS011;24210;51.460;6.148;2023-03-14T09:59:54;0.77;;;0.40;;
38425;SDS011;24210;51.460;6.148;2023-03-14T10:02:25;3.63;;;1.73;;
38425;SDS011;24210;51.460;6.148;2023-03-14T10:04:53;2.33;;;0.45;;
38425;SDS011;24210;51.460;6.148;2023-03-14T10:07:21;1.05;;;0.00;;
38425;SDS011;24210;51.460;6.148;2023-03-14T10:09:50;2.38;;;0.10;;
38425;SDS011;24210;51.460;6.148;2023-03-14T10:12:15;1.20;;;0.10;;
38425;SDS011;24210;51.460;6.148;2023-03-14T10:14:45;2.17;;;0.23;;
38425;SDS011;24210;51.460;6.148;2023-03-14T10:17:12;3.15;;;0.63;;
38425;SDS011;24210;51.460;6.148;2023-03-14T10:19:40;5.72;;;0.40;;
38425;SDS011;24210;51.460;6.148;2023-03-14T10:22:15;4.63;;;0.88;;
38425;SDS011;24210;51.460;6.148;2023-03-14T10:24:45;0.73;;;0.60;;
38425;SDS011;24210;51.460;6.148;2023-03-14T10:27:20;3.80;;;0.60;;
38425;SDS011;24210;51.460;6.148;2023-03-14T10:29:54;2.13;;;0.63;;
38425;SDS011;24210;51.460;6.148;2023-03-14T10:32:20;1.40;;;0.20;;
38425;SDS011;24210;51.460;6.148;2023-03-14T10:34:46;0.63;;;0.30;;
38425;SDS011;24210;51.460;6.148;2023-03-14T10:37:27;2.28;;;0.20;;
38425;SDS011;24210;51.460;6.148;2023-03-14T10:39:53;0.87;;;0.20;;
38425;SDS011;24210;51.460;6.148;2023-03-14T10:42:24;0.45;;;0.38;;
38425;SDS011;24210;51.460;6.148;2023-03-14T10:44:53;1.35;;;0.68;;
38425;SDS011;24210;51.460;6.148;2023-03-14T10:47:21;5.25;;;1.38;;
38425;SDS011;24210;51.460;6.148;2023-03-14T10:49:47;3.03;;;0.98;;
38425;SDS011;24210;51.460;6.148;2023-03-14T10:54:40;1.98;;;0.13;;
38425;SDS011;24210;51.460;6.148;2023-03-14T10:57:06;2.43;;;1.20;;
38425;SDS011;24210;51.460;6.148;2023-03-14T10:59:35;1.63;;;0.37;;
38425;SDS011;24210;51.460;6.148;2023-03-14T11:02:14;3.80;;;0.20;;
38425;SDS011;24210;51.460;6.148;2023-03-14T11:07:16;1.98;;;0.10;;
38425;SDS011;24210;51.460;6.148;2023-03-14T11:09:46;0.50;;;0.20;;
38425;SDS011;24210;51.460;6.148;2023-03-14T11:14:43;3.22;;;0.43;;
38425;SDS011;24210;51.460;6.148;2023-03-14T11:17:24;3.35;;;0.40;;
38425;SDS011;24210;51.460;6.148;2023-03-14T11:22:21;2.07;;;0.40;;
38425;SDS011;24210;51.460;6.148;2023-03-14T11:30:15;5.35;;;0.70;;
38425;SDS011;24210;51.460;6.148;2023-03-14T11:32:43;1.92;;;0.28;;
38425;SDS011;24210;51.460;6.148;2023-03-14T11:35:45;3.33;;;0.70;;
38425;SDS011;24210;51.460;6.148;2023-03-14T11:40:44;3.38;;;0.70;;
38425;SDS011;24210;51.460;6.148;2023-03-14T11:43:13;6.90;;;1.30;;
38425;SDS011;24210;51.460;6.148;2023-03-14T11:45:41;4.25;;;0.63;;
38425;SDS011;24210;51.460;6.148;2023-03-14T11:50:31;5.67;;;0.87;;
38425;SDS011;24210;51.460;6.148;2023-03-14T11:53:19;6.55;;;1.50;;
38425;SDS011;24210;51.460;6.148;2023-03-14T11:55:43;10.80;;;1.20;;
38425;SDS011;24210;51.460;6.148;2023-03-14T12:00:35;6.82;;;1.67;;
38425;SDS011;24210;51.460;6.148;2023-03-14T12:10:59;9.88;;;1.20;;
38425;SDS011;24210;51.460;6.148;2023-03-14T12:13:28;5.78;;;1.40;;
38425;SDS011;24210;51.460;6.148;2023-03-14T12:15:57;3.83;;;1.33;;
38425;SDS011;24210;51.460;6.148;2023-03-14T12:18:32;6.30;;;0.60;;
38425;SDS011;24210;51.460;6.148;2023-03-14T12:20:58;3.22;;;0.88;;
38425;SDS011;24210;51.460;6.148;2023-03-14T12:26:05;5.68;;;1.00;;
38425;SDS011;24210;51.460;6.148;2023-03-14T12:28:31;5.90;;;0.77;;
38425;SDS011;24210;51.460;6.148;2023-03-14T12:30:57;3.30;;;0.80;;
38425;SDS011;24210;51.460;6.148;2023-03-14T12:34:00;2.30;;;0.98;;
38425;SDS011;24210;51.460;6.148;2023-03-14T12:41:43;8.70;;;1.38;;
38425;SDS011;24210;51.460;6.148;2023-03-14T12:46:53;9.85;;;2.42;;
38425;SDS011;24210;51.460;6.148;2023-03-14T12:49:18;8.77;;;1.93;;
38425;SDS011;24210;51.460;6.148;2023-03-14T12:51:43;9.93;;;1.83;;
38425;SDS011;24210;51.460;6.148;2023-03-14T13:04:35;9.27;;;1.58;;
38425;SDS011;24210;51.460;6.148;2023-03-14T13:07:01;19.27;;;2.97;;
38425;SDS011;24210;51.460;6.148;2023-03-14T13:12:00;10.30;;;3.28;;
38425;SDS011;24210;51.460;6.148;2023-03-14T13:14:27;5.80;;;1.67;;
38425;SDS011;24210;51.460;6.148;2023-03-14T13:16:53;8.05;;;1.58;;
38425;SDS011;24210;51.460;6.148;2023-03-14T13:19:19;10.63;;;3.03;;
38425;SDS011;24210;51.460;6.148;2023-03-14T13:24:24;7.43;;;3.00;;
38425;SDS011;24210;51.460;6.148;2023-03-14T13:26:49;9.00;;;1.13;;
38425;SDS011;24210;51.460;6.148;2023-03-14T13:31:46;9.63;;;1.67;;
38425;SDS011;24210;51.460;6.148;2023-03-14T13:34:11;9.75;;;2.72;;
38425;SDS011;24210;51.460;6.148;2023-03-14T13:36:37;6.80;;;1.57;;
38425;SDS011;24210;51.460;6.148;2023-03-14T13:39:03;6.93;;;1.95;;
38425;SDS011;24210;51.460;6.148;2023-03-14T13:44:01;7.30;;;1.58;;
38425;SDS011;24210;51.460;6.148;2023-03-14T13:46:27;6.80;;;1.33;;
38425;SDS011;24210;51.460;6.148;2023-03-14T13:48:57;1.10;;;0.13;;
38425;SDS011;24210;51.460;6.148;2023-03-14T13:51:24;9.15;;;2.50;;
38425;SDS011;24210;51.460;6.148;2023-03-14T13:53:53;3.33;;;1.17;;
38425;SDS011;24210;51.460;6.148;2023-03-14T13:56:19;10.98;;;1.95;;
38425;SDS011;24210;51.460;6.148;2023-03-14T13:58:45;5.00;;;1.05;;
38425;SDS011;24210;51.460;6.148;2023-03-14T14:03:39;2.77;;;0.77;;
38425;SDS011;24210;51.460;6.148;2023-03-14T14:06:08;8.93;;;1.48;;
38425;SDS011;24210;51.460;6.148;2023-03-14T14:08:35;8.48;;;1.13;;
38425;SDS011;24210;51.460;6.148;2023-03-14T14:11:01;2.80;;;0.40;;
38425;SDS011;24210;51.460;6.148;2023-03-14T14:13:27;3.97;;;1.02;;
38425;SDS011;24210;51.460;6.148;2023-03-14T14:15:54;4.70;;;0.70;;
38425;SDS011;24210;51.460;6.148;2023-03-14T14:18:21;4.60;;;1.07;;
38425;SDS011;24210;51.460;6.148;2023-03-14T14:20:48;5.65;;;1.38;;
38425;SDS011;24210;51.460;6.148;2023-03-14T14:23:21;6.57;;;2.30;;
38425;SDS011;24210;51.460;6.148;2023-03-14T14:25:51;2.45;;;0.60;;
38425;SDS011;24210;51.460;6.148;2023-03-14T14:33:42;2.53;;;0.85;;
38425;SDS011;24210;51.460;6.148;2023-03-14T14:36:21;7.75;;;1.95;;
38425;SDS011;24210;51.460;6.148;2023-03-14T14:39:21;6.55;;;0.75;;
38425;SDS011;24210;51.460;6.148;2023-03-14T14:41:41;6.85;;;1.10;;
38425;SDS011;24210;51.460;6.148;2023-03-14T14:44:07;3.95;;;1.23;;
38425;SDS011;24210;51.460;6.148;2023-03-14T14:46:33;7.17;;;1.93;;
38425;SDS011;24210;51.460;6.148;2023-03-14T14:49:05;5.68;;;1.48;;
38425;SDS011;24210;51.460;6.148;2023-03-14T14:51:32;3.92;;;1.00;;
38425;SDS011;24210;51.460;6.148;2023-03-14T14:54:01;4.15;;;0.90;;
38425;SDS011;24210;51.460;6.148;2023-03-14T14:56:27;3.83;;;1.73;;
38425;SDS011;24210;51.460;6.148;2023-03-14T14:58:59;5.13;;;1.17;;
38425;SDS011;24210;51.460;6.148;2023-03-14T15:01:37;4.22;;;0.57;;
38425;SDS011;24210;51.460;6.148;2023-03-14T15:04:04;2.92;;;0.60;;
38425;SDS011;24210;51.460;6.148;2023-03-14T15:06:35;2.97;;;0.73;;
38425;SDS011;24210;51.460;6.148;2023-03-14T15:09:00;6.63;;;1.03;;
38425;SDS011;24210;51.460;6.148;2023-03-14T15:11:25;4.37;;;0.77;;
38425;SDS011;24210;51.460;6.148;2023-03-14T15:13:51;2.30;;;0.53;;
38425;SDS011;24210;51.460;6.148;2023-03-14T15:16:18;4.50;;;1.50;;
38425;SDS011;24210;51.460;6.148;2023-03-14T15:21:09;6.22;;;1.02;;
38425;SDS011;24210;51.460;6.148;2023-03-14T15:23:35;4.17;;;0.60;;
38425;SDS011;24210;51.460;6.148;2023-03-14T15:26:00;6.47;;;0.73;;
38425;SDS011;24210;51.460;6.148;2023-03-14T15:28:26;5.13;;;1.40;;
38425;SDS011;24210;51.460;6.148;2023-03-14T15:30:53;6.65;;;0.93;;
38425;SDS011;24210;51.460;6.148;2023-03-14T15:33:19;5.53;;;1.00;;
38425;SDS011;24210;51.460;6.148;2023-03-14T15:35:44;4.33;;;0.63;;
38425;SDS011;24210;51.460;6.148;2023-03-14T15:38:14;9.73;;;1.53;;
38425;SDS011;24210;51.460;6.148;2023-03-14T15:40:40;5.78;;;1.45;;
38425;SDS011;24210;51.460;6.148;2023-03-14T15:43:05;6.30;;;1.87;;
38425;SDS011;24210;51.460;6.148;2023-03-14T15:45:31;5.83;;;0.97;;
38425;SDS011;24210;51.460;6.148;2023-03-14T15:47:56;8.33;;;1.20;;
38425;SDS011;24210;51.460;6.148;2023-03-14T15:50:22;4.93;;;0.70;;
38425;SDS011;24210;51.460;6.148;2023-03-14T15:52:47;7.95;;;1.17;;
38425;SDS011;24210;51.460;6.148;2023-03-14T15:55:13;4.03;;;0.80;;
38425;SDS011;24210;51.460;6.148;2023-03-14T15:57:39;9.05;;;1.13;;
38425;SDS011;24210;51.460;6.148;2023-03-14T16:00:04;5.03;;;1.30;;
38425;SDS011;24210;51.460;6.148;2023-03-14T16:02:32;6.65;;;0.57;;
38425;SDS011;24210;51.460;6.148;2023-03-14T16:04:57;7.90;;;0.77;;